ADDS METAR Data INFO
IDs: Format: Raw Decoded Include TAF

Data at: 1640 UTC 23 Nov 2017

KGPM 231550Z 18003KT 10SM SKC 11/M04 A3021
KGPM 231450Z 00000KT 10SM SKC 07/M02 A3022
KGPM 231350Z 00000KT 10SM SKC 03/M02 A3021
KGPM 231335Z AUTO 00000KT 10SM CLR 03/M02 A3021 RMK AO2 T00301022
KGPM 231315Z AUTO 00000KT 10SM CLR 02/M02 A3021 RMK AO2 T00241020
KGPM 231255Z AUTO 00000KT 10SM CLR 03/M01 A3021 RMK AO2 T00251015
KGPM 231235Z AUTO 00000KT 10SM CLR 03/M01 A3021 RMK AO2 T00291015
KGPM 231215Z AUTO 00000KT 10SM CLR 03/M02 A3020 RMK AO2 T00271016
KGPM 231155Z AUTO 00000KT 10SM CLR 04/M01 A3021 RMK AO2 T00371015 10062 20030
KGPM 231135Z AUTO 00000KT 10SM CLR 04/M01 A3021 RMK AO2 T00361015
KGPM 231115Z AUTO 00000KT 10SM CLR 03/M02 A3022 RMK AO2 T00321017
KGPM 231055Z AUTO 00000KT 10SM CLR 03/M02 A3021 RMK AO2 T00341018
KGPM 231035Z AUTO 00000KT 10SM CLR 03/M02 A3021 RMK AO2 T00311020
KGPM 231015Z AUTO 00000KT 10SM CLR 03/M02 A3022 RMK AO2 T00331018
KGPM 230955Z AUTO 00000KT 10SM CLR 04/M02 A3023 RMK AO2 T00361020
KGPM 230935Z AUTO 00000KT 10SM CLR 04/M02 A3023 RMK AO2 T00401020
KGPM 230915Z AUTO 22003KT 10SM CLR 04/M02 A3023 RMK AO2 T00401018
KGPM 230855Z AUTO 00000KT 10SM CLR 04/M02 A3023 RMK AO2 T00371017
KGPM 230835Z AUTO 18003KT 10SM CLR 04/M01 A3023 RMK AO2 T00371015
KGPM 230815Z AUTO 00000KT 10SM CLR 04/M01 A3024 RMK AO2 T00411014
KGPM 230755Z AUTO 00000KT 10SM CLR 05/M02 A3025 RMK AO2 T00461022
KGPM 230735Z AUTO 00000KT 10SM CLR 06/M03 A3026 RMK AO2 T00551030
KGPM 230715Z AUTO 00000KT 10SM CLR 05/M02 A3026 RMK AO2 T00461022
KGPM 230655Z AUTO 00000KT 10SM CLR 05/M03 A3027 RMK AO2 T00541027
KGPM 230635Z AUTO 00000KT 10SM CLR 06/M02 A3027 RMK AO2 T00621025
KGPM 230615Z AUTO 00000KT 10SM CLR 06/M02 A3028 RMK AO2 T00551019
KGPM 230555Z AUTO 00000KT 10SM CLR 06/M02 A3028 RMK AO2 T00631020 10105 20056 401260050
KGPM 230535Z AUTO 00000KT 10SM CLR 07/M03 A3028 RMK AO2 T00691026
KGPM 230515Z AUTO 00000KT 10SM CLR 06/M02 A3028 RMK AO2 T00631021
KGPM 230455Z AUTO 00000KT 10SM CLR 07/M02 A3028 RMK AO2 T00661025
KGPM 230435Z AUTO 00000KT 10SM CLR 07/M03 A3028 RMK AO2 T00701028
KGPM 230415Z AUTO 00000KT 10SM CLR 06/M03 A3029 RMK AO2 T00611032
KGPM 230355Z AUTO 00000KT 10SM CLR 07/M04 A3029 RMK AO2 T00681036
KGPM 230335Z AUTO 00000KT 10SM CLR 08/M04 A3030 RMK AO2 T00751045
KGPM 230315Z AUTO 00000KT 10SM CLR 08/M05 A3030 RMK AO2 T00811050
KGPM 230255Z AUTO 00000KT 10SM CLR 09/M05 A3030 RMK AO2 T00871053
KGPM 230235Z AUTO 00000KT 10SM CLR 08/M06 A3030 RMK AO2 T00821059
KGPM 230215Z AUTO 00000KT 10SM CLR 10/M06 A3030 RMK AO2 T00951061
KGPM 230155Z AUTO 00000KT 10SM CLR 10/M06 A3029 RMK AO2 T00951065
KGPM 230135Z AUTO 00000KT 10SM CLR 10/M07 A3029 RMK AO2 T00951069
KGPM 230115Z AUTO 00000KT 10SM CLR 09/M07 A3029 RMK AO2 T00931070
KGPM 230055Z AUTO 00000KT 10SM CLR 10/M07 A3029 RMK AO2 T00961071
KGPM 230035Z AUTO 34003KT 10SM CLR 09/M07 A3029 RMK AO2 T00921070
KGPM 230015Z AUTO 35005KT 10SM CLR 09/M07 A3030 RMK AO2 T00901070
KGPM 222350Z 31006KT 10SM SKC 12/M07 A3030
KGPM 222250Z 31006KT 10SM SKC 12/M07 A3030
KGPM 222150Z 31006KT 10SM SKC 12/M08 A3031
KGPM 222050Z 31006KT 10SM SKC 12/M08 A3031
KGPM 221950Z 33008KT 10SM SKC 12/M07 A3033
KGPM 221850Z 34008KT 10SM SKC 11/M07 A3035
KGPM 221750Z 34008KT 10SM SKC 09/M06 A3038
KGPM 221650Z 34008KT 10SM SKC 07/M08 A3040
KGPM 221550Z 34006KT 10SM SKC 07/M08 A3041
KGPM 221450Z 32006KT 10SM SKC 05/M08 A3042
KGPM 221350Z 32006KT 10SM SKC 05/M08 A3039
KGPM 221335Z AUTO 32006KT 10SM CLR 05/M08 A3039 RMK AO2 T00501081
KGPM 221315Z AUTO 32003KT 10SM CLR 05/M08 A3039 RMK AO2 T00501076
KGPM 221255Z AUTO 31003KT 10SM CLR 05/M07 A3037 RMK AO2 T00511073
KGPM 221235Z AUTO 31003KT 10SM CLR 06/M08 A3036 RMK AO2 T00571079
KGPM 221215Z AUTO 34006KT 10SM CLR 06/M07 A3036 RMK AO2 T00601075
KGPM 221155Z AUTO 34007KT 10SM CLR 07/M07 A3036 RMK AO2 T00651074 10125 20065
KGPM 221135Z AUTO 34012G16KT 10SM CLR 07/M08 A3035 RMK AO2 T00681077
KGPM 221115Z AUTO 34010KT 10SM CLR 07/M07 A3034 RMK AO2 T00701070
KGPM 221055Z AUTO 34011G14KT 10SM CLR 07/M06 A3033 RMK AO2 T00701065
KGPM 221035Z AUTO 35009KT 10SM CLR 07/M06 A3033 RMK AO2 T00741062
KGPM 221015Z AUTO 34011G16KT 10SM CLR 08/M05 A3033 RMK AO2 T00801050
KGPM 220955Z AUTO 34010G17KT 10SM CLR 09/M04 A3033 RMK AO2 T00861039
KGPM 220935Z AUTO 35014G18KT 10SM CLR 09/M03 A3032 RMK AO2 T00901029
KGPM 220915Z AUTO 34010KT 10SM CLR 09/M02 A3032 RMK AO2 T00921018
KGPM 220855Z AUTO 34008KT 10SM CLR 10/M02 A3031 RMK AO2 T00951022
KGPM 220835Z AUTO 35015G20KT 10SM CLR 10/M03 A3030 RMK AO2 T00971030
KGPM 220815Z AUTO 34012G15KT 10SM CLR 10/M01 A3028 RMK AO2 T01011012
KGPM 220755Z AUTO 35012G16KT 10SM CLR 11/00 A3027 RMK AO2 T01050001
KGPM 220735Z AUTO 36009KT 10SM CLR 11/00 A3027 RMK AO2 T01080000
KGPM 220715Z AUTO 01012G17KT 10SM CLR 11/00 A3026 RMK AO2 T01120000
KGPM 220635Z AUTO 35013KT 10SM CLR 12/01 A3027 RMK AO2 T01170009
KGPM 220615Z AUTO 35013G19KT 10SM CLR 12/01 A3026 RMK AO2 T01210012
KGPM 220555Z AUTO 34014G20KT 10SM CLR 12/01 A3026 RMK AO2 T01240013 10177 20124 402010105
KGPM 220535Z AUTO 35014KT 10SM CLR 13/02 A3025 RMK AO2 T01270015
KGPM 220515Z AUTO 35016G21KT 10SM CLR 13/02 A3025 RMK AO2 T01300015
KGPM 220455Z AUTO 35014G19KT 10SM CLR 13/02 A3024 RMK AO2 T01300017